Terminal Aerodrome Forecast
Issued by NWS

Home | Current Version | Previous Version | Text Only | Print | Product List | Glossary On
Versions: 1 2 3 4 5 6 7 8 9 10 11 12 13 14 15 16
918
FTUS41 KCAR 181720
TAFFVE
TAF
KFVE 181720Z 1818/1918 15006KT P6SM SCT010
     FM182100 15007KT P6SM BKN025
     FM190200 16008KT P6SM BKN015
     FM190500 17008KT 6SM -SN OVC015
     FM190600 17009KT 1SM -SN OVC005
     FM191400 19006KT P6SM OVC008
     FM191500 20005KT P6SM OVC003=

USA.gov is the U.S. government's official web portal to all federal, state and local government web resources and services.